sensor_id;sensor_type;location;lat;lon;timestamp;pressure;altitude;pressure_sealevel;temperature;humidity
12213;BME280;6169;44.158;22.788;2023-02-02T00:00:23;101159.41;;;6.67;54.57
12213;BME280;6169;44.158;22.788;2023-02-02T00:05:26;101161.91;;;6.69;54.45
12213;BME280;6169;44.158;22.788;2023-02-02T00:10:29;101161.28;;;6.97;53.78
12213;BME280;6169;44.158;22.788;2023-02-02T00:15:31;101136.34;;;7.24;52.77
12213;BME280;6169;44.158;22.788;2023-02-02T00:20:34;101131.72;;;7.03;53.09
12213;BME280;6169;44.158;22.788;2023-02-02T00:25:36;101125.16;;;6.91;52.69
12213;BME280;6169;44.158;22.788;2023-02-02T00:30:39;101124.75;;;7.09;52.32
12213;BME280;6169;44.158;22.788;2023-02-02T00:35:42;101115.94;;;7.00;53.01
12213;BME280;6169;44.158;22.788;2023-02-02T00:40:45;101116.59;;;7.02;52.84
12213;BME280;6169;44.158;22.788;2023-02-02T00:45:47;101111.53;;;6.63;53.63
12213;BME280;6169;44.158;22.788;2023-02-02T00:50:51;101114.94;;;6.86;52.96
12213;BME280;6169;44.158;22.788;2023-02-02T00:55:54;101102.41;;;6.93;52.29
12213;BME280;6169;44.158;22.788;2023-02-02T01:00:56;101090.28;;;7.40;51.13
12213;BME280;6169;44.158;22.788;2023-02-02T01:06:00;101102.16;;;7.25;50.81
12213;BME280;6169;44.158;22.788;2023-02-02T01:11:02;101102.28;;;7.16;51.50
12213;BME280;6169;44.158;22.788;2023-02-02T01:16:05;101071.81;;;7.01;51.17
12213;BME280;6169;44.158;22.788;2023-02-02T01:21:10;101110.38;;;7.02;52.09
12213;BME280;6169;44.158;22.788;2023-02-02T01:26:13;101092.81;;;7.06;51.99
12213;BME280;6169;44.158;22.788;2023-02-02T01:31:18;101093.84;;;7.05;51.74
12213;BME280;6169;44.158;22.788;2023-02-02T01:36:22;101094.94;;;6.95;52.69
12213;BME280;6169;44.158;22.788;2023-02-02T01:41:25;101087.16;;;7.01;52.27
12213;BME280;6169;44.158;22.788;2023-02-02T01:46:29;101095.41;;;7.14;51.91
12213;BME280;6169;44.158;22.788;2023-02-02T01:51:39;101095.09;;;6.87;53.37
12213;BME280;6169;44.158;22.788;2023-02-02T01:56:56;101106.50;;;6.60;53.47
12213;BME280;6169;44.158;22.788;2023-02-02T02:02:00;101116.91;;;7.29;51.88
12213;BME280;6169;44.158;22.788;2023-02-02T02:07:04;101103.53;;;6.69;53.02
12213;BME280;6169;44.158;22.788;2023-02-02T02:12:10;101118.72;;;6.33;54.49
12213;BME280;6169;44.158;22.788;2023-02-02T02:17:34;101128.59;;;6.70;53.65
12213;BME280;6169;44.158;22.788;2023-02-02T02:23:01;101139.84;;;6.73;53.35
12213;BME280;6169;44.158;22.788;2023-02-02T02:28:50;101130.81;;;6.96;52.68
12213;BME280;6169;44.158;22.788;2023-02-02T02:34:06;101121.44;;;6.92;52.94
12213;BME280;6169;44.158;22.788;2023-02-02T02:39:16;101106.91;;;7.23;51.78
12213;BME280;6169;44.158;22.788;2023-02-02T02:44:21;101106.03;;;6.86;52.71
12213;BME280;6169;44.158;22.788;2023-02-02T02:49:26;101102.66;;;6.10;55.01
12213;BME280;6169;44.158;22.788;2023-02-02T02:54:30;101101.13;;;5.92;56.50
12213;BME280;6169;44.158;22.788;2023-02-02T02:59:39;101106.50;;;5.92;56.78
12213;BME280;6169;44.158;22.788;2023-02-02T03:04:53;101101.53;;;5.58;57.57
12213;BME280;6169;44.158;22.788;2023-02-02T03:09:59;101112.38;;;5.73;56.82
12213;BME280;6169;44.158;22.788;2023-02-02T03:15:04;101107.72;;;6.04;55.79
12213;BME280;6169;44.158;22.788;2023-02-02T03:20:09;101101.38;;;6.35;54.88
12213;BME280;6169;44.158;22.788;2023-02-02T03:25:12;101092.84;;;6.32;54.90
12213;BME280;6169;44.158;22.788;2023-02-02T03:30:16;101094.34;;;6.64;54.43
12213;BME280;6169;44.158;22.788;2023-02-02T03:35:19;101076.88;;;6.75;53.80
12213;BME280;6169;44.158;22.788;2023-02-02T03:40:22;101073.84;;;6.63;53.92
12213;BME280;6169;44.158;22.788;2023-02-02T03:45:26;101093.69;;;6.62;53.77
12213;BME280;6169;44.158;22.788;2023-02-02T03:50:30;101083.69;;;6.70;54.27
12213;BME280;6169;44.158;22.788;2023-02-02T03:55:32;101078.75;;;7.25;53.33
12213;BME280;6169;44.158;22.788;2023-02-02T04:00:35;101071.09;;;7.29;53.17
12213;BME280;6169;44.158;22.788;2023-02-02T04:05:39;101084.88;;;6.83;54.58
12213;BME280;6169;44.158;22.788;2023-02-02T04:10:41;101064.38;;;7.39;52.91
12213;BME280;6169;44.158;22.788;2023-02-02T04:15:43;101076.44;;;7.22;54.09
12213;BME280;6169;44.158;22.788;2023-02-02T04:20:47;101081.38;;;7.18;54.61
12213;BME280;6169;44.158;22.788;2023-02-02T04:25:49;101087.75;;;7.32;53.70
12213;BME280;6169;44.158;22.788;2023-02-02T04:30:52;101102.63;;;6.62;55.64
12213;BME280;6169;44.158;22.788;2023-02-02T04:35:56;101105.31;;;7.28;53.35
12213;BME280;6169;44.158;22.788;2023-02-02T04:41:05;101086.63;;;6.90;53.58
12213;BME280;6169;44.158;22.788;2023-02-02T04:46:08;101090.59;;;6.94;53.19
12213;BME280;6169;44.158;22.788;2023-02-02T04:51:13;101094.06;;;6.59;53.71
12213;BME280;6169;44.158;22.788;2023-02-02T04:56:17;101095.59;;;6.09;55.11
12213;BME280;6169;44.158;22.788;2023-02-02T05:01:19;101113.88;;;6.13;54.65
12213;BME280;6169;44.158;22.788;2023-02-02T05:06:23;101115.28;;;6.39;53.44
12213;BME280;6169;44.158;22.788;2023-02-02T05:11:25;101108.53;;;6.58;52.94
12213;BME280;6169;44.158;22.788;2023-02-02T05:16:27;101098.97;;;6.55;52.74
12213;BME280;6169;44.158;22.788;2023-02-02T05:21:31;101101.38;;;6.35;53.01
12213;BME280;6169;44.158;22.788;2023-02-02T05:26:33;101099.97;;;6.39;52.69
12213;BME280;6169;44.158;22.788;2023-02-02T05:31:35;101076.25;;;5.90;54.14
12213;BME280;6169;44.158;22.788;2023-02-02T05:36:39;101100.69;;;6.03;54.16
12213;BME280;6169;44.158;22.788;2023-02-02T05:41:41;101097.34;;;6.01;54.20
12213;BME280;6169;44.158;22.788;2023-02-02T05:46:44;101097.28;;;5.64;55.54
12213;BME280;6169;44.158;22.788;2023-02-02T05:51:49;101099.00;;;5.56;56.17
12213;BME280;6169;44.158;22.788;2023-02-02T05:56:53;101099.81;;;6.26;53.49
12213;BME280;6169;44.158;22.788;2023-02-02T06:01:56;101105.16;;;5.88;54.66
12213;BME280;6169;44.158;22.788;2023-02-02T06:07:00;101089.63;;;5.98;54.33
12213;BME280;6169;44.158;22.788;2023-02-02T06:12:03;101074.94;;;6.24;54.02
12213;BME280;6169;44.158;22.788;2023-02-02T06:17:05;101077.25;;;6.12;53.26
12213;BME280;6169;44.158;22.788;2023-02-02T06:22:09;101059.03;;;6.88;51.70
12213;BME280;6169;44.158;22.788;2023-02-02T06:27:11;101061.47;;;6.83;50.71
12213;BME280;6169;44.158;22.788;2023-02-02T06:32:13;101064.19;;;6.68;52.09
12213;BME280;6169;44.158;22.788;2023-02-02T06:37:17;101056.28;;;7.39;50.52
12213;BME280;6169;44.158;22.788;2023-02-02T06:42:19;101044.78;;;7.67;49.43
12213;BME280;6169;44.158;22.788;2023-02-02T06:47:21;101039.22;;;7.54;49.91
12213;BME280;6169;44.158;22.788;2023-02-02T06:52:25;101030.06;;;7.27;49.87
12213;BME280;6169;44.158;22.788;2023-02-02T06:57:27;101031.78;;;7.56;49.31
12213;BME280;6169;44.158;22.788;2023-02-02T07:02:29;101035.88;;;7.95;48.17
12213;BME280;6169;44.158;22.788;2023-02-02T07:07:33;101032.50;;;8.14;48.21
12213;BME280;6169;44.158;22.788;2023-02-02T07:12:36;101021.34;;;7.96;48.32
12213;BME280;6169;44.158;22.788;2023-02-02T07:17:38;101000.94;;;8.56;47.14
12213;BME280;6169;44.158;22.788;2023-02-02T07:22:42;101011.94;;;8.55;47.38
12213;BME280;6169;44.158;22.788;2023-02-02T07:27:44;101032.56;;;8.62;47.06
12213;BME280;6169;44.158;22.788;2023-02-02T07:32:47;101034.22;;;8.70;47.20
12213;BME280;6169;44.158;22.788;2023-02-02T07:37:53;101042.50;;;8.62;46.38
12213;BME280;6169;44.158;22.788;2023-02-02T07:42:56;101056.03;;;9.10;45.46
12213;BME280;6169;44.158;22.788;2023-02-02T07:48:00;101058.00;;;9.49;45.46
12213;BME280;6169;44.158;22.788;2023-02-02T07:53:04;101062.59;;;9.69;44.31
12213;BME280;6169;44.158;22.788;2023-02-02T07:58:07;101061.16;;;9.86;45.49
12213;BME280;6169;44.158;22.788;2023-02-02T08:03:10;101073.38;;;9.49;45.72
12213;BME280;6169;44.158;22.788;2023-02-02T08:08:14;101077.16;;;9.88;44.04
12213;BME280;6169;44.158;22.788;2023-02-02T08:13:16;101089.88;;;10.20;44.34
12213;BME280;6169;44.158;22.788;2023-02-02T08:18:18;101091.34;;;10.23;43.53
12213;BME280;6169;44.158;22.788;2023-02-02T08:23:22;101097.38;;;9.98;41.34
12213;BME280;6169;44.158;22.788;2023-02-02T08:28:24;101099.22;;;10.58;42.37
12213;BME280;6169;44.158;22.788;2023-02-02T08:33:26;101106.31;;;10.32;44.23
12213;BME280;6169;44.158;22.788;2023-02-02T08:38:30;101127.53;;;10.68;44.12
12213;BME280;6169;44.158;22.788;2023-02-02T08:43:32;101126.72;;;10.21;42.48
12213;BME280;6169;44.158;22.788;2023-02-02T08:48:34;101141.94;;;10.29;43.69
12213;BME280;6169;44.158;22.788;2023-02-02T08:53:38;101137.34;;;9.90;44.51
12213;BME280;6169;44.158;22.788;2023-02-02T08:58:44;101145.06;;;10.59;43.26
12213;BME280;6169;44.158;22.788;2023-02-02T09:03:47;101145.03;;;10.52;43.69
12213;BME280;6169;44.158;22.788;2023-02-02T09:08:50;101157.09;;;10.70;43.18
12213;BME280;6169;44.158;22.788;2023-02-02T09:13:54;101158.38;;;10.61;43.33
12213;BME280;6169;44.158;22.788;2023-02-02T09:18:57;101174.19;;;10.44;43.34
12213;BME280;6169;44.158;22.788;2023-02-02T09:24:04;101186.91;;;10.43;43.68
12213;BME280;6169;44.158;22.788;2023-02-02T09:29:10;101182.56;;;10.22;44.47
12213;BME280;6169;44.158;22.788;2023-02-02T09:34:14;101185.59;;;9.73;46.64
12213;BME280;6169;44.158;22.788;2023-02-02T09:39:18;101185.22;;;10.02;49.48
12213;BME280;6169;44.158;22.788;2023-02-02T09:44:31;101188.16;;;9.94;51.10
12213;BME280;6169;44.158;22.788;2023-02-02T09:49:42;101200.88;;;9.46;54.13
12213;BME280;6169;44.158;22.788;2023-02-02T09:54:51;101186.81;;;9.70;53.59
12213;BME280;6169;44.158;22.788;2023-02-02T09:59:56;101184.69;;;9.11;56.23
12213;BME280;6169;44.158;22.788;2023-02-02T10:05:02;101197.66;;;8.87;59.16
12213;BME280;6169;44.158;22.788;2023-02-02T10:10:13;101201.22;;;8.94;59.96
12213;BME280;6169;44.158;22.788;2023-02-02T10:15:21;101201.44;;;8.93;62.93
12213;BME280;6169;44.158;22.788;2023-02-02T10:20:36;101198.78;;;8.71;63.82
12213;BME280;6169;44.158;22.788;2023-02-02T10:25:48;101209.31;;;8.17;63.74
12213;BME280;6169;44.158;22.788;2023-02-02T10:30:56;101195.78;;;8.10;66.73
12213;BME280;6169;44.158;22.788;2023-02-02T10:36:08;101189.28;;;7.83;66.32
12213;BME280;6169;44.158;22.788;2023-02-02T10:41:22;101188.66;;;8.52;65.09
12213;BME280;6169;44.158;22.788;2023-02-02T10:46:31;101181.56;;;7.80;67.90
12213;BME280;6169;44.158;22.788;2023-02-02T10:51:34;101173.28;;;7.60;68.17
12213;BME280;6169;44.158;22.788;2023-02-02T10:56:41;101119.47;;;7.15;68.05
12213;BME280;6169;44.158;22.788;2023-02-02T11:01:48;101134.13;;;7.28;69.54
12213;BME280;6169;44.158;22.788;2023-02-02T11:06:50;101158.56;;;7.62;68.60
12213;BME280;6169;44.158;22.788;2023-02-02T11:11:56;101163.19;;;7.69;68.85
12213;BME280;6169;44.158;22.788;2023-02-02T11:17:03;101161.25;;;7.77;68.96
12213;BME280;6169;44.158;22.788;2023-02-02T11:22:23;101153.78;;;7.79;68.58
12213;BME280;6169;44.158;22.788;2023-02-02T11:27:30;101150.03;;;7.59;68.91
12213;BME280;6169;44.158;22.788;2023-02-02T11:32:33;101138.03;;;8.26;67.78
12213;BME280;6169;44.158;22.788;2023-02-02T11:37:37;101130.22;;;8.72;67.07
12213;BME280;6169;44.158;22.788;2023-02-02T11:42:45;101137.44;;;9.00;66.27
12213;BME280;6169;44.158;22.788;2023-02-02T11:47:49;101122.75;;;8.68;66.50
12213;BME280;6169;44.158;22.788;2023-02-02T11:52:53;101117.75;;;8.37;65.97
12213;BME280;6169;44.158;22.788;2023-02-02T11:58:19;101099.75;;;7.94;64.63
12213;BME280;6169;44.158;22.788;2023-02-02T12:03:28;101098.09;;;7.93;63.13
12213;BME280;6169;44.158;22.788;2023-02-02T12:08:30;101094.09;;;8.11;63.38
12213;BME280;6169;44.158;22.788;2023-02-02T12:13:47;101089.91;;;8.08;60.75
12213;BME280;6169;44.158;22.788;2023-02-02T12:19:02;101041.53;;;8.35;61.54
12213;BME280;6169;44.158;22.788;2023-02-02T12:24:21;101084.06;;;8.67;60.43
12213;BME280;6169;44.158;22.788;2023-02-02T12:29:40;101085.34;;;8.65;59.67
12213;BME280;6169;44.158;22.788;2023-02-02T12:34:55;101091.28;;;8.54;58.66
12213;BME280;6169;44.158;22.788;2023-02-02T12:40:07;101080.97;;;8.36;59.00
12213;BME280;6169;44.158;22.788;2023-02-02T12:45:50;101087.84;;;8.73;57.63
12213;BME280;6169;44.158;22.788;2023-02-02T12:50:59;101083.13;;;8.47;57.76
12213;BME280;6169;44.158;22.788;2023-02-02T12:56:15;101070.34;;;8.62;57.13
12213;BME280;6169;44.158;22.788;2023-02-02T13:01:32;101072.88;;;8.36;56.97
12213;BME280;6169;44.158;22.788;2023-02-02T13:07:08;101077.53;;;8.90;55.67
12213;BME280;6169;44.158;22.788;2023-02-02T13:12:15;101090.91;;;8.28;56.30
12213;BME280;6169;44.158;22.788;2023-02-02T13:17:25;101067.91;;;9.15;54.13
12213;BME280;6169;44.158;22.788;2023-02-02T13:22:31;101078.00;;;9.00;53.62
12213;BME280;6169;44.158;22.788;2023-02-02T13:27:35;101078.97;;;9.40;53.51
12213;BME280;6169;44.158;22.788;2023-02-02T13:32:44;101075.13;;;8.25;53.96
12213;BME280;6169;44.158;22.788;2023-02-02T13:37:50;101104.44;;;7.85;56.45
12213;BME280;6169;44.158;22.788;2023-02-02T13:43:04;101118.31;;;8.25;54.31
12213;BME280;6169;44.158;22.788;2023-02-02T13:48:18;101140.25;;;8.22;55.04
12213;BME280;6169;44.158;22.788;2023-02-02T13:53:40;101143.13;;;8.14;54.69
12213;BME280;6169;44.158;22.788;2023-02-02T13:59:00;101140.44;;;7.93;54.95
12213;BME280;6169;44.158;22.788;2023-02-02T14:04:20;101144.44;;;8.53;53.30
12213;BME280;6169;44.158;22.788;2023-02-02T14:09:25;101149.69;;;8.61;53.11
12213;BME280;6169;44.158;22.788;2023-02-02T14:14:29;101138.03;;;9.30;51.75
12213;BME280;6169;44.158;22.788;2023-02-02T14:19:51;101045.81;;;8.57;51.77
12213;BME280;6169;44.158;22.788;2023-02-02T14:24:54;101121.06;;;8.67;51.18
12213;BME280;6169;44.158;22.788;2023-02-02T14:29:58;101120.00;;;8.33;52.46
12213;BME280;6169;44.158;22.788;2023-02-02T14:40:46;101111.59;;;8.49;50.89
12213;BME280;6169;44.158;22.788;2023-02-02T14:46:18;101113.50;;;8.90;50.45
12213;BME280;6169;44.158;22.788;2023-02-02T14:51:24;101104.94;;;8.87;49.74
12213;BME280;6169;44.158;22.788;2023-02-02T14:56:41;101125.88;;;9.13;49.72
12213;BME280;6169;44.158;22.788;2023-02-02T15:01:58;101143.31;;;9.10;48.61
12213;BME280;6169;44.158;22.788;2023-02-02T15:07:35;101153.03;;;9.46;47.32
12213;BME280;6169;44.158;22.788;2023-02-02T15:12:42;101157.84;;;9.09;47.45
12213;BME280;6169;44.158;22.788;2023-02-02T15:18:03;101163.41;;;9.01;48.27
12213;BME280;6169;44.158;22.788;2023-02-02T15:23:19;101168.25;;;8.71;49.27
12213;BME280;6169;44.158;22.788;2023-02-02T15:28:31;101167.00;;;9.08;48.74
12213;BME280;6169;44.158;22.788;2023-02-02T15:33:41;101173.25;;;8.74;48.82
12213;BME280;6169;44.158;22.788;2023-02-02T15:38:47;101179.47;;;8.18;49.39
12213;BME280;6169;44.158;22.788;2023-02-02T15:43:51;101184.09;;;8.24;49.06
12213;BME280;6169;44.158;22.788;2023-02-02T15:54:34;101188.44;;;7.82;49.22
12213;BME280;6169;44.158;22.788;2023-02-02T15:59:39;101188.84;;;7.79;49.19
12213;BME280;6169;44.158;22.788;2023-02-02T16:04:43;101192.69;;;8.13;48.03
12213;BME280;6169;44.158;22.788;2023-02-02T16:09:45;101191.56;;;8.01;48.33
12213;BME280;6169;44.158;22.788;2023-02-02T16:14:51;101190.25;;;7.97;47.90
12213;BME280;6169;44.158;22.788;2023-02-02T16:19:59;101186.59;;;7.83;48.40
12213;BME280;6169;44.158;22.788;2023-02-02T16:25:06;101202.84;;;7.90;48.92
12213;BME280;6169;44.158;22.788;2023-02-02T16:30:22;101208.09;;;7.76;49.02
12213;BME280;6169;44.158;22.788;2023-02-02T16:35:32;101202.75;;;7.32;50.55
12213;BME280;6169;44.158;22.788;2023-02-02T16:40:34;101214.88;;;7.21;51.44
12213;BME280;6169;44.158;22.788;2023-02-02T16:45:44;101218.28;;;7.45;51.07
12213;BME280;6169;44.158;22.788;2023-02-02T16:50:47;101216.78;;;7.57;50.84
12213;BME280;6169;44.158;22.788;2023-02-02T16:56:04;101221.03;;;7.51;50.78
12213;BME280;6169;44.158;22.788;2023-02-02T17:01:10;101227.09;;;7.53;50.21
12213;BME280;6169;44.158;22.788;2023-02-02T17:06:13;101221.59;;;7.76;49.27
12213;BME280;6169;44.158;22.788;2023-02-02T17:11:22;101223.88;;;7.58;50.23
12213;BME280;6169;44.158;22.788;2023-02-02T17:16:26;101227.34;;;7.73;49.27
12213;BME280;6169;44.158;22.788;2023-02-02T17:21:28;101222.19;;;7.57;50.11
12213;BME280;6169;44.158;22.788;2023-02-02T17:26:33;101230.44;;;7.55;49.57
12213;BME280;6169;44.158;22.788;2023-02-02T17:31:39;101238.34;;;7.42;50.30
12213;BME280;6169;44.158;22.788;2023-02-02T17:36:41;101241.06;;;7.57;49.89
12213;BME280;6169;44.158;22.788;2023-02-02T17:41:44;101242.16;;;7.77;48.97
12213;BME280;6169;44.158;22.788;2023-02-02T17:46:49;101228.78;;;7.91;48.37
12213;BME280;6169;44.158;22.788;2023-02-02T17:51:51;101242.88;;;7.56;49.10
12213;BME280;6169;44.158;22.788;2023-02-02T17:56:54;101240.88;;;7.58;49.05
12213;BME280;6169;44.158;22.788;2023-02-02T18:01:58;101233.63;;;7.59;49.40
12213;BME280;6169;44.158;22.788;2023-02-02T18:07:00;101240.19;;;7.71;49.56
12213;BME280;6169;44.158;22.788;2023-02-02T18:12:03;101238.44;;;7.34;50.37
12213;BME280;6169;44.158;22.788;2023-02-02T18:17:07;101239.31;;;7.05;51.43
12213;BME280;6169;44.158;22.788;2023-02-02T18:22:10;101235.41;;;7.22;51.52
12213;BME280;6169;44.158;22.788;2023-02-02T18:27:13;101230.75;;;7.31;51.84
12213;BME280;6169;44.158;22.788;2023-02-02T18:32:20;101227.31;;;7.07;52.63
12213;BME280;6169;44.158;22.788;2023-02-02T18:37:22;101224.63;;;7.22;52.19
12213;BME280;6169;44.158;22.788;2023-02-02T18:42:25;101238.50;;;6.81;53.40
12213;BME280;6169;44.158;22.788;2023-02-02T18:47:33;101236.88;;;6.95;53.14
12213;BME280;6169;44.158;22.788;2023-02-02T18:52:35;101249.53;;;7.24;51.99
12213;BME280;6169;44.158;22.788;2023-02-02T18:57:37;101256.38;;;7.12;52.84
12213;BME280;6169;44.158;22.788;2023-02-02T19:02:41;101257.88;;;7.00;52.87
12213;BME280;6169;44.158;22.788;2023-02-02T19:07:43;101268.47;;;7.16;52.32
12213;BME280;6169;44.158;22.788;2023-02-02T19:13:08;101258.53;;;7.02;52.28
12213;BME280;6169;44.158;22.788;2023-02-02T19:18:15;101261.47;;;6.92;52.82
12213;BME280;6169;44.158;22.788;2023-02-02T19:23:19;101247.16;;;6.77;53.00
12213;BME280;6169;44.158;22.788;2023-02-02T19:28:24;101254.47;;;6.68;53.30
12213;BME280;6169;44.158;22.788;2023-02-02T19:33:36;101269.09;;;7.18;51.88
12213;BME280;6169;44.158;22.788;2023-02-02T19:38:39;101263.16;;;7.23;51.83
12213;BME280;6169;44.158;22.788;2023-02-02T19:43:41;101253.59;;;6.90;52.76
12213;BME280;6169;44.158;22.788;2023-02-02T19:48:50;100981.34;;;5.06;53.15
12213;BME280;6169;44.158;22.788;2023-02-02T19:53:57;101278.97;;;7.11;52.17
12213;BME280;6169;44.158;22.788;2023-02-02T19:59:00;101295.59;;;7.14;52.52
12213;BME280;6169;44.158;22.788;2023-02-02T20:04:10;101301.22;;;6.90;52.85
12213;BME280;6169;44.158;22.788;2023-02-02T20:09:15;101303.72;;;6.91;52.02
12213;BME280;6169;44.158;22.788;2023-02-02T20:14:25;101313.31;;;6.94;52.50
12213;BME280;6169;44.158;22.788;2023-02-02T20:19:33;101322.50;;;7.00;52.53
12213;BME280;6169;44.158;22.788;2023-02-02T20:24:38;101317.03;;;6.93;52.50
12213;BME280;6169;44.158;22.788;2023-02-02T20:29:43;101162.22;;;6.21;51.33
12213;BME280;6169;44.158;22.788;2023-02-02T20:34:49;101352.22;;;7.06;51.24
12213;BME280;6169;44.158;22.788;2023-02-02T20:39:54;101359.66;;;7.57;50.22
12213;BME280;6169;44.158;22.788;2023-02-02T20:44:56;101355.31;;;7.18;51.30
12213;BME280;6169;44.158;22.788;2023-02-02T20:50:00;101339.59;;;6.69;52.77
12213;BME280;6169;44.158;22.788;2023-02-02T20:55:04;101341.81;;;6.88;52.13
12213;BME280;6169;44.158;22.788;2023-02-02T21:00:09;101331.22;;;6.64;52.69
12213;BME280;6169;44.158;22.788;2023-02-02T21:05:13;101328.78;;;6.31;54.48
12213;BME280;6169;44.158;22.788;2023-02-02T21:10:15;101319.63;;;6.40;53.52
12213;BME280;6169;44.158;22.788;2023-02-02T21:15:17;101333.66;;;6.97;52.02
12213;BME280;6169;44.158;22.788;2023-02-02T21:20:21;101361.19;;;6.84;52.39
12213;BME280;6169;44.158;22.788;2023-02-02T21:25:23;101358.78;;;6.89;51.88
12213;BME280;6169;44.158;22.788;2023-02-02T21:30:26;101360.75;;;7.33;50.32
12213;BME280;6169;44.158;22.788;2023-02-02T21:35:29;101357.22;;;6.94;51.38
12213;BME280;6169;44.158;22.788;2023-02-02T21:40:32;101358.34;;;7.00;51.09
12213;BME280;6169;44.158;22.788;2023-02-02T21:45:35;101355.34;;;6.80;51.63
12213;BME280;6169;44.158;22.788;2023-02-02T21:50:40;101362.44;;;6.73;51.74
12213;BME280;6169;44.158;22.788;2023-02-02T21:55:43;101355.28;;;6.42;52.82
12213;BME280;6169;44.158;22.788;2023-02-02T22:00:46;101360.88;;;6.56;52.72
12213;BME280;6169;44.158;22.788;2023-02-02T22:05:51;101366.94;;;6.58;52.81
12213;BME280;6169;44.158;22.788;2023-02-02T22:10:54;101371.78;;;6.85;51.58
12213;BME280;6169;44.158;22.788;2023-02-02T22:15:56;101370.41;;;6.89;51.17
12213;BME280;6169;44.158;22.788;2023-02-02T22:21:00;101382.16;;;7.49;49.25
12213;BME280;6169;44.158;22.788;2023-02-02T22:26:02;101372.84;;;7.52;49.03
12213;BME280;6169;44.158;22.788;2023-02-02T22:31:04;101381.06;;;7.58;49.03
12213;BME280;6169;44.158;22.788;2023-02-02T22:36:08;101382.94;;;7.35;49.36
12213;BME280;6169;44.158;22.788;2023-02-02T22:41:10;101383.00;;;7.79;48.51
12213;BME280;6169;44.158;22.788;2023-02-02T22:46:12;101385.41;;;7.45;48.50
12213;BME280;6169;44.158;22.788;2023-02-02T22:51:16;101386.69;;;7.49;48.67
12213;BME280;6169;44.158;22.788;2023-02-02T22:56:18;101382.25;;;7.56;48.71
12213;BME280;6169;44.158;22.788;2023-02-02T23:01:21;101386.19;;;7.68;48.37
12213;BME280;6169;44.158;22.788;2023-02-02T23:06:24;101384.78;;;7.72;48.33
12213;BME280;6169;44.158;22.788;2023-02-02T23:11:27;101381.72;;;7.60;48.69
12213;BME280;6169;44.158;22.788;2023-02-02T23:16:29;101367.00;;;7.63;48.55
12213;BME280;6169;44.158;22.788;2023-02-02T23:21:32;101383.88;;;7.27;50.29
12213;BME280;6169;44.158;22.788;2023-02-02T23:26:34;101406.53;;;6.49;52.61
12213;BME280;6169;44.158;22.788;2023-02-02T23:31:37;101413.03;;;7.24;52.11
12213;BME280;6169;44.158;22.788;2023-02-02T23:36:40;101426.66;;;7.98;48.74
12213;BME280;6169;44.158;22.788;2023-02-02T23:41:42;101437.31;;;7.76;49.30
12213;BME280;6169;44.158;22.788;2023-02-02T23:46:45;101442.25;;;8.02;48.70
12213;BME280;6169;44.158;22.788;2023-02-02T23:51:49;101454.16;;;8.08;47.71
12213;BME280;6169;44.158;22.788;2023-02-02T23:56:51;101463.59;;;8.63;46.85
